sensor_id;sensor_type;location;lat;lon;timestamp;pressure;altitude;pressure_sealevel;temperature;humidity
62789;BME280;66401;42.016;21.454;2023-01-26T00:02:09;98586.97;;;4.89;84.42
62789;BME280;66401;42.016;21.454;2023-01-26T00:04:35;98578.34;;;4.80;85.12
62789;BME280;66401;42.016;21.454;2023-01-26T00:07:00;98590.00;;;4.84;85.13
62789;BME280;66401;42.016;21.454;2023-01-26T00:09:26;98579.97;;;4.81;86.12
62789;BME280;66401;42.016;21.454;2023-01-26T00:11:51;98579.69;;;4.84;85.00
62789;BME280;66401;42.016;21.454;2023-01-26T00:14:17;98576.72;;;4.79;85.44
62789;BME280;66401;42.016;21.454;2023-01-26T00:16:43;98574.28;;;4.78;85.41
62789;BME280;66401;42.016;21.454;2023-01-26T00:19:08;98566.72;;;4.76;85.15
62789;BME280;66401;42.016;21.454;2023-01-26T00:21:34;98570.53;;;4.72;86.25
62789;BME280;66401;42.016;21.454;2023-01-26T00:23:59;98561.84;;;4.73;86.21
62789;BME280;66401;42.016;21.454;2023-01-26T00:26:26;98568.63;;;4.74;86.10
62789;BME280;66401;42.016;21.454;2023-01-26T00:28:52;98568.63;;;4.74;85.66
62789;BME280;66401;42.016;21.454;2023-01-26T00:31:25;98566.84;;;4.75;85.25
62789;BME280;66401;42.016;21.454;2023-01-26T00:33:53;98558.59;;;4.71;85.43
62789;BME280;66401;42.016;21.454;2023-01-26T00:36:19;98557.13;;;4.69;85.17
62789;BME280;66401;42.016;21.454;2023-01-26T00:38:45;98555.66;;;4.66;85.92
62789;BME280;66401;42.016;21.454;2023-01-26T00:41:11;98564.34;;;4.65;85.28
62789;BME280;66401;42.016;21.454;2023-01-26T00:43:57;98559.47;;;4.62;86.92
62789;BME280;66401;42.016;21.454;2023-01-26T00:46:22;98549.59;;;4.57;86.57
62789;BME280;66401;42.016;21.454;2023-01-26T00:48:48;98552.75;;;4.51;86.64
62789;BME280;66401;42.016;21.454;2023-01-26T00:51:13;98558.81;;;4.60;87.17
62789;BME280;66401;42.016;21.454;2023-01-26T00:53:39;98550.56;;;4.56;86.43
62789;BME280;66401;42.016;21.454;2023-01-26T00:56:05;98551.06;;;4.60;86.84
62789;BME280;66401;42.016;21.454;2023-01-26T00:58:30;98540.50;;;4.53;86.70
62789;BME280;66401;42.016;21.454;2023-01-26T01:00:56;98533.53;;;4.46;86.82
62789;BME280;66401;42.016;21.454;2023-01-26T01:03:21;98541.91;;;4.48;86.94
62789;BME280;66401;42.016;21.454;2023-01-26T01:05:47;98523.22;;;4.46;87.47
62789;BME280;66401;42.016;21.454;2023-01-26T01:08:12;98541.19;;;4.55;87.89
62789;BME280;66401;42.016;21.454;2023-01-26T01:10:38;98538.09;;;4.52;87.69
62789;BME280;66401;42.016;21.454;2023-01-26T01:13:03;98527.41;;;4.47;87.96
62789;BME280;66401;42.016;21.454;2023-01-26T01:15:29;98537.06;;;4.45;87.62
62789;BME280;66401;42.016;21.454;2023-01-26T01:17:54;98527.16;;;4.40;87.95
62789;BME280;66401;42.016;21.454;2023-01-26T01:20:19;98531.91;;;4.45;89.72
62789;BME280;66401;42.016;21.454;2023-01-26T01:22:45;98523.78;;;4.40;88.87
62789;BME280;66401;42.016;21.454;2023-01-26T01:25:11;98495.13;;;4.25;88.65
62789;BME280;66401;42.016;21.454;2023-01-26T01:27:36;98509.69;;;4.34;89.07
62789;BME280;66401;42.016;21.454;2023-01-26T01:30:03;98505.38;;;4.35;88.98
62789;BME280;66401;42.016;21.454;2023-01-26T01:32:35;98509.03;;;4.32;89.81
62789;BME280;66401;42.016;21.454;2023-01-26T01:35:01;98500.78;;;4.28;89.48
62789;BME280;66401;42.016;21.454;2023-01-26T01:37:28;98494.38;;;4.32;90.59
62789;BME280;66401;42.016;21.454;2023-01-26T01:39:53;98481.47;;;3.97;90.48
62789;BME280;66401;42.016;21.454;2023-01-26T01:42:19;98475.13;;;4.09;90.19
62789;BME280;66401;42.016;21.454;2023-01-26T01:44:45;98477.97;;;3.88;90.98
62789;BME280;66401;42.016;21.454;2023-01-26T01:47:31;98482.78;;;4.01;90.41
62789;BME280;66401;42.016;21.454;2023-01-26T01:49:57;98485.34;;;4.01;90.74
62789;BME280;66401;42.016;21.454;2023-01-26T01:52:31;98482.88;;;4.09;91.01
62789;BME280;66401;42.016;21.454;2023-01-26T01:55:02;98473.97;;;4.21;91.04
62789;BME280;66401;42.016;21.454;2023-01-26T01:57:38;98480.22;;;4.19;89.73
62789;BME280;66401;42.016;21.454;2023-01-26T02:00:14;98477.88;;;4.25;90.21
62789;BME280;66401;42.016;21.454;2023-01-26T02:02:42;98474.63;;;4.23;89.90
62789;BME280;66401;42.016;21.454;2023-01-26T02:05:23;98467.41;;;4.27;90.37
62789;BME280;66401;42.016;21.454;2023-01-26T02:07:51;98475.00;;;4.28;89.22
62789;BME280;66401;42.016;21.454;2023-01-26T02:10:18;98470.50;;;4.30;89.05
62789;BME280;66401;42.016;21.454;2023-01-26T02:12:50;98466.63;;;4.26;89.66
62789;BME280;66401;42.016;21.454;2023-01-26T02:15:18;98476.44;;;4.13;89.63
62789;BME280;66401;42.016;21.454;2023-01-26T02:17:43;98474.56;;;4.15;89.68
62789;BME280;66401;42.016;21.454;2023-01-26T02:25:28;98471.03;;;4.16;89.77
62789;BME280;66401;42.016;21.454;2023-01-26T02:27:57;98475.06;;;4.19;91.28
62789;BME280;66401;42.016;21.454;2023-01-26T02:30:23;98467.50;;;4.17;91.13
62789;BME280;66401;42.016;21.454;2023-01-26T02:32:49;98465.56;;;4.19;90.88
62789;BME280;66401;42.016;21.454;2023-01-26T02:35:14;98467.50;;;4.17;89.73
62789;BME280;66401;42.016;21.454;2023-01-26T02:37:40;98466.13;;;4.13;90.80
62789;BME280;66401;42.016;21.454;2023-01-26T02:40:12;98459.09;;;4.15;90.94
62789;BME280;66401;42.016;21.454;2023-01-26T02:42:40;98453.94;;;4.15;90.20
62789;BME280;66401;42.016;21.454;2023-01-26T02:45:12;98431.97;;;4.11;91.27
62789;BME280;66401;42.016;21.454;2023-01-26T02:47:38;98437.63;;;4.15;89.89
62789;BME280;66401;42.016;21.454;2023-01-26T02:50:06;98444.72;;;4.13;89.43
62789;BME280;66401;42.016;21.454;2023-01-26T02:52:32;98438.09;;;4.10;89.89
62789;BME280;66401;42.016;21.454;2023-01-26T02:54:58;98427.94;;;4.09;90.18
62789;BME280;66401;42.016;21.454;2023-01-26T02:57:43;98397.66;;;3.93;89.95
62789;BME280;66401;42.016;21.454;2023-01-26T03:00:13;98418.13;;;4.12;90.62
62789;BME280;66401;42.016;21.454;2023-01-26T03:02:40;98403.84;;;4.00;89.32
62789;BME280;66401;42.016;21.454;2023-01-26T03:05:06;98412.22;;;4.02;90.51
62789;BME280;66401;42.016;21.454;2023-01-26T03:07:31;98403.84;;;4.00;90.21
62789;BME280;66401;42.016;21.454;2023-01-26T03:09:57;98404.94;;;3.97;90.35
62789;BME280;66401;42.016;21.454;2023-01-26T03:12:25;98396.25;;;3.98;91.31
62789;BME280;66401;42.016;21.454;2023-01-26T03:14:51;98396.91;;;4.00;91.10
62789;BME280;66401;42.016;21.454;2023-01-26T03:17:36;98393.22;;;4.03;91.38
62789;BME280;66401;42.016;21.454;2023-01-26T03:20:03;98385.94;;;3.98;91.05
62789;BME280;66401;42.016;21.454;2023-01-26T03:22:47;98383.06;;;3.84;91.36
62789;BME280;66401;42.016;21.454;2023-01-26T03:25:31;98398.63;;;3.64;91.28
62789;BME280;66401;42.016;21.454;2023-01-26T03:28:15;98386.06;;;3.61;91.87
62789;BME280;66401;42.016;21.454;2023-01-26T03:30:50;98378.78;;;3.74;92.53
62789;BME280;66401;42.016;21.454;2023-01-26T03:33:16;98382.31;;;3.73;90.64
62789;BME280;66401;42.016;21.454;2023-01-26T03:35:42;98380.63;;;3.37;92.24
62789;BME280;66401;42.016;21.454;2023-01-26T03:38:07;98384.16;;;3.36;91.93
62789;BME280;66401;42.016;21.454;2023-01-26T03:40:33;98380.53;;;3.29;92.40
62789;BME280;66401;42.016;21.454;2023-01-26T03:43:17;98381.44;;;3.37;93.07
62789;BME280;66401;42.016;21.454;2023-01-26T03:46:05;98373.59;;;3.39;92.08
62789;BME280;66401;42.016;21.454;2023-01-26T03:48:50;98370.31;;;3.37;93.13
62789;BME280;66401;42.016;21.454;2023-01-26T03:51:34;98376.66;;;3.42;93.54
62789;BME280;66401;42.016;21.454;2023-01-26T03:54:19;98370.31;;;3.37;92.62
62789;BME280;66401;42.016;21.454;2023-01-26T03:57:03;98375.81;;;3.24;92.67
62789;BME280;66401;42.016;21.454;2023-01-26T03:59:28;98380.91;;;3.34;91.95
62789;BME280;66401;42.016;21.454;2023-01-26T04:02:12;98384.75;;;3.30;93.21
62789;BME280;66401;42.016;21.454;2023-01-26T04:04:56;98383.38;;;3.26;92.62
62789;BME280;66401;42.016;21.454;2023-01-26T04:07:40;98373.59;;;3.39;92.24
62789;BME280;66401;42.016;21.454;2023-01-26T04:10:25;98364.59;;;3.43;90.62
62789;BME280;66401;42.016;21.454;2023-01-26T04:12:51;98355.25;;;3.42;92.05
62789;BME280;66401;42.016;21.454;2023-01-26T04:15:36;98359.22;;;3.36;91.60
62789;BME280;66401;42.016;21.454;2023-01-26T04:18:20;98354.88;;;3.37;91.87
62789;BME280;66401;42.016;21.454;2023-01-26T04:21:05;98353.25;;;3.36;91.23
62789;BME280;66401;42.016;21.454;2023-01-26T04:23:51;98339.41;;;3.19;91.49
62789;BME280;66401;42.016;21.454;2023-01-26T04:26:18;98350.59;;;3.28;89.92
62789;BME280;66401;42.016;21.454;2023-01-26T04:28:43;98348.06;;;3.18;92.20
62789;BME280;66401;42.016;21.454;2023-01-26T04:31:09;98352.03;;;3.12;90.98
62789;BME280;66401;42.016;21.454;2023-01-26T04:33:34;98357.13;;;3.22;92.10
62789;BME280;66401;42.016;21.454;2023-01-26T04:36:04;98345.38;;;3.20;90.80
62789;BME280;66401;42.016;21.454;2023-01-26T04:38:29;98348.78;;;3.38;90.37
62789;BME280;66401;42.016;21.454;2023-01-26T04:40:55;98347.94;;;3.20;91.72
62789;BME280;66401;42.016;21.454;2023-01-26T04:43:20;98335.13;;;3.28;91.20
62789;BME280;66401;42.016;21.454;2023-01-26T04:48:23;98322.81;;;3.04;92.14
62789;BME280;66401;42.016;21.454;2023-01-26T04:50:56;98333.72;;;3.15;92.41
62789;BME280;66401;42.016;21.454;2023-01-26T04:53:22;98327.16;;;3.03;92.61
62789;BME280;66401;42.016;21.454;2023-01-26T04:55:48;98330.69;;;3.02;93.33
62789;BME280;66401;42.016;21.454;2023-01-26T04:58:13;98321.16;;;3.12;94.73
62789;BME280;66401;42.016;21.454;2023-01-26T05:00:39;98325.19;;;3.15;92.36
62789;BME280;66401;42.016;21.454;2023-01-26T05:03:04;98337.03;;;2.98;92.39
62789;BME280;66401;42.016;21.454;2023-01-26T05:05:30;98334.75;;;2.95;92.82
62789;BME280;66401;42.016;21.454;2023-01-26T05:07:59;98333.28;;;2.93;91.58
62789;BME280;66401;42.016;21.454;2023-01-26T05:10:25;98347.63;;;2.95;92.24
62789;BME280;66401;42.016;21.454;2023-01-26T05:12:50;98344.28;;;2.85;91.96
62789;BME280;66401;42.016;21.454;2023-01-26T05:15:15;98337.44;;;3.03;91.96
62789;BME280;66401;42.016;21.454;2023-01-26T05:17:41;98330.09;;;3.08;91.03
62789;BME280;66401;42.016;21.454;2023-01-26T05:20:07;98331.81;;;2.90;92.25
62789;BME280;66401;42.016;21.454;2023-01-26T05:22:32;98336.25;;;2.88;92.16
62789;BME280;66401;42.016;21.454;2023-01-26T05:24:58;98331.53;;;2.93;93.05
62789;BME280;66401;42.016;21.454;2023-01-26T05:27:23;98329.31;;;2.98;92.73
62789;BME280;66401;42.016;21.454;2023-01-26T05:29:49;98314.66;;;3.08;91.46
62789;BME280;66401;42.016;21.454;2023-01-26T05:32:15;98322.25;;;3.10;91.71
62789;BME280;66401;42.016;21.454;2023-01-26T05:34:41;98328.47;;;3.07;91.41
62789;BME280;66401;42.016;21.454;2023-01-26T05:37:06;98328.63;;;3.06;92.40
62789;BME280;66401;42.016;21.454;2023-01-26T05:39:32;98327.16;;;3.03;91.67
62789;BME280;66401;42.016;21.454;2023-01-26T05:41:57;98336.59;;;3.12;91.97
62789;BME280;66401;42.016;21.454;2023-01-26T05:44:23;98342.94;;;3.08;91.79
62789;BME280;66401;42.016;21.454;2023-01-26T05:46:53;98340.16;;;3.02;91.55
62789;BME280;66401;42.016;21.454;2023-01-26T05:49:19;98339.50;;;3.00;91.99
62789;BME280;66401;42.016;21.454;2023-01-26T05:51:44;98339.34;;;3.01;90.71
62789;BME280;66401;42.016;21.454;2023-01-26T05:54:10;98322.00;;;3.03;91.05
62789;BME280;66401;42.016;21.454;2023-01-26T05:56:35;98335.41;;;2.97;91.31
62789;BME280;66401;42.016;21.454;2023-01-26T05:59:01;98328.75;;;3.04;91.36
62789;BME280;66401;42.016;21.454;2023-01-26T06:01:26;98320.41;;;2.93;90.47
62789;BME280;66401;42.016;21.454;2023-01-26T06:03:53;98330.69;;;3.02;92.07
62789;BME280;66401;42.016;21.454;2023-01-26T06:06:18;98321.22;;;2.93;90.51
62789;BME280;66401;42.016;21.454;2023-01-26T06:08:44;98316.59;;;2.97;89.64
62789;BME280;66401;42.016;21.454;2023-01-26T06:11:09;98293.97;;;2.73;89.60
62789;BME280;66401;42.016;21.454;2023-01-26T06:13:35;98332.28;;;3.03;89.66
62789;BME280;66401;42.016;21.454;2023-01-26T06:16:00;98324.88;;;3.00;90.62
62789;BME280;66401;42.016;21.454;2023-01-26T06:18:26;98331.22;;;2.96;90.44
62789;BME280;66401;42.016;21.454;2023-01-26T06:20:52;98329.63;;;2.95;90.77
62789;BME280;66401;42.016;21.454;2023-01-26T06:23:17;98326.66;;;2.90;90.78
62789;BME280;66401;42.016;21.454;2023-01-26T06:25:43;98325.59;;;2.83;90.08
62789;BME280;66401;42.016;21.454;2023-01-26T06:28:08;98335.38;;;2.70;91.90
62789;BME280;66401;42.016;21.454;2023-01-26T06:30:34;98328.72;;;2.77;91.39
62789;BME280;66401;42.016;21.454;2023-01-26T06:32:59;98328.84;;;2.85;90.52
62789;BME280;66401;42.016;21.454;2023-01-26T06:35:25;98320.75;;;2.80;91.85
62789;BME280;66401;42.016;21.454;2023-01-26T06:37:51;98322.38;;;2.81;90.84
62789;BME280;66401;42.016;21.454;2023-01-26T06:40:18;98294.41;;;2.58;90.93
62789;BME280;66401;42.016;21.454;2023-01-26T06:42:48;98334.16;;;2.74;91.37
62789;BME280;66401;42.016;21.454;2023-01-26T06:45:14;98335.53;;;2.68;91.15
62789;BME280;66401;42.016;21.454;2023-01-26T06:47:44;98330.53;;;2.67;91.94
62789;BME280;66401;42.016;21.454;2023-01-26T06:50:11;98344.88;;;2.59;91.47
62789;BME280;66401;42.016;21.454;2023-01-26T06:52:36;98329.44;;;2.59;91.92
62789;BME280;66401;42.016;21.454;2023-01-26T06:55:15;98337.06;;;2.61;91.33
62789;BME280;66401;42.016;21.454;2023-01-26T06:57:44;98332.44;;;2.65;90.35
62789;BME280;66401;42.016;21.454;2023-01-26T07:00:11;98321.88;;;2.58;90.74
62789;BME280;66401;42.016;21.454;2023-01-26T07:02:36;98318.84;;;2.82;89.99
62789;BME280;66401;42.016;21.454;2023-01-26T07:05:02;98318.25;;;2.88;89.78
62789;BME280;66401;42.016;21.454;2023-01-26T07:07:28;98316.47;;;2.98;89.71
62789;BME280;66401;42.016;21.454;2023-01-26T07:09:53;98311.31;;;2.98;89.88
62789;BME280;66401;42.016;21.454;2023-01-26T07:12:19;98312.38;;;3.05;88.36
62789;BME280;66401;42.016;21.454;2023-01-26T07:14:45;98313.31;;;3.04;87.81
62789;BME280;66401;42.016;21.454;2023-01-26T07:17:11;98305.47;;;3.06;87.46
62789;BME280;66401;42.016;21.454;2023-01-26T07:19:36;98296.38;;;3.11;87.58
62789;BME280;66401;42.016;21.454;2023-01-26T07:22:03;98297.97;;;3.12;88.03
62789;BME280;66401;42.016;21.454;2023-01-26T07:24:28;98304.59;;;3.15;86.66
62789;BME280;66401;42.016;21.454;2023-01-26T07:26:55;98308.78;;;2.88;87.83
62789;BME280;66401;42.016;21.454;2023-01-26T07:29:21;98305.47;;;3.06;86.65
62789;BME280;66401;42.016;21.454;2023-01-26T07:31:46;98308.19;;;3.04;87.39
62789;BME280;66401;42.016;21.454;2023-01-26T07:34:12;98321.44;;;3.09;86.13
62789;BME280;66401;42.016;21.454;2023-01-26T07:36:37;98319.56;;;3.02;87.10
62789;BME280;66401;42.016;21.454;2023-01-26T07:39:03;98316.63;;;2.87;87.64
62789;BME280;66401;42.016;21.454;2023-01-26T07:41:30;98311.19;;;3.00;87.41
62789;BME280;66401;42.016;21.454;2023-01-26T07:43:56;98304.34;;;3.08;86.77
62789;BME280;66401;42.016;21.454;2023-01-26T07:46:22;98306.13;;;3.08;87.31
62789;BME280;66401;42.016;21.454;2023-01-26T07:48:49;98300.56;;;3.12;86.31
62789;BME280;66401;42.016;21.454;2023-01-26T07:51:15;98284.56;;;3.19;86.70
62789;BME280;66401;42.016;21.454;2023-01-26T07:53:41;98292.34;;;3.27;87.38
62789;BME280;66401;42.016;21.454;2023-01-26T07:56:12;98291.09;;;3.31;87.84
62789;BME280;66401;42.016;21.454;2023-01-26T07:58:39;98280.81;;;3.31;87.24
62789;BME280;66401;42.016;21.454;2023-01-26T08:01:13;98283.31;;;3.40;86.15
62789;BME280;66401;42.016;21.454;2023-01-26T08:03:39;98285.25;;;3.38;86.00
62789;BME280;66401;42.016;21.454;2023-01-26T08:06:06;98284.13;;;3.41;85.26
62789;BME280;66401;42.016;21.454;2023-01-26T08:08:32;98287.66;;;3.40;84.88
62789;BME280;66401;42.016;21.454;2023-01-26T08:10:58;98275.50;;;3.32;84.71
62789;BME280;66401;42.016;21.454;2023-01-26T08:13:25;98274.84;;;3.30;84.38
62789;BME280;66401;42.016;21.454;2023-01-26T08:15:52;98278.31;;;3.39;83.96
62789;BME280;66401;42.016;21.454;2023-01-26T08:18:18;98281.25;;;3.44;82.66
62789;BME280;66401;42.016;21.454;2023-01-26T08:20:51;98280.75;;;3.40;84.12
62789;BME280;66401;42.016;21.454;2023-01-26T08:23:16;98278.44;;;3.37;82.28
62789;BME280;66401;42.016;21.454;2023-01-26T08:25:42;98272.50;;;3.37;83.22
62789;BME280;66401;42.016;21.454;2023-01-26T08:28:07;98280.22;;;3.37;83.41
62789;BME280;66401;42.016;21.454;2023-01-26T08:30:33;98273.69;;;3.42;82.96
62789;BME280;66401;42.016;21.454;2023-01-26T08:33:01;98278.19;;;3.40;82.17
62789;BME280;66401;42.016;21.454;2023-01-26T08:35:26;98269.78;;;3.38;82.29
62789;BME280;66401;42.016;21.454;2023-01-26T08:37:52;98273.91;;;3.31;83.51
62789;BME280;66401;42.016;21.454;2023-01-26T08:40:17;98272.78;;;3.34;83.59
62789;BME280;66401;42.016;21.454;2023-01-26T08:42:43;98276.03;;;3.36;84.10
62789;BME280;66401;42.016;21.454;2023-01-26T08:45:08;98270.88;;;3.36;84.11
62789;BME280;66401;42.016;21.454;2023-01-26T08:47:34;98276.72;;;3.38;83.88
62789;BME280;66401;42.016;21.454;2023-01-26T08:50:00;98259.19;;;3.41;84.41
62789;BME280;66401;42.016;21.454;2023-01-26T08:52:25;98271.03;;;3.52;84.51
62789;BME280;66401;42.016;21.454;2023-01-26T08:54:50;98269.94;;;3.55;83.55
62789;BME280;66401;42.016;21.454;2023-01-26T08:57:16;98262.34;;;3.53;83.19
62789;BME280;66401;42.016;21.454;2023-01-26T08:59:41;98259.44;;;3.48;82.84
62789;BME280;66401;42.016;21.454;2023-01-26T09:02:08;98255.59;;;3.52;82.36
62789;BME280;66401;42.016;21.454;2023-01-26T09:04:34;98237.94;;;3.57;81.77
62789;BME280;66401;42.016;21.454;2023-01-26T09:07:00;98251.16;;;3.62;81.16
62789;BME280;66401;42.016;21.454;2023-01-26T09:09:29;98247.56;;;3.55;83.01
62789;BME280;66401;42.016;21.454;2023-01-26T09:11:54;98257.63;;;3.66;82.48
62789;BME280;66401;42.016;21.454;2023-01-26T09:14:20;98252.94;;;3.44;82.36
62789;BME280;66401;42.016;21.454;2023-01-26T09:16:46;98277.56;;;3.47;82.71
62789;BME280;66401;42.016;21.454;2023-01-26T09:19:12;98265.56;;;3.20;83.93
62789;BME280;66401;42.016;21.454;2023-01-26T09:21:37;98254.09;;;3.32;83.76
62789;BME280;66401;42.016;21.454;2023-01-26T09:24:03;98243.81;;;3.32;85.01
62789;BME280;66401;42.016;21.454;2023-01-26T09:26:29;98221.81;;;3.20;84.19
62789;BME280;66401;42.016;21.454;2023-01-26T09:28:55;98243.44;;;3.44;83.48
62789;BME280;66401;42.016;21.454;2023-01-26T09:31:21;98242.06;;;3.50;83.33
62789;BME280;66401;42.016;21.454;2023-01-26T09:33:49;98243.81;;;3.50;82.57
62789;BME280;66401;42.016;21.454;2023-01-26T09:36:15;98250.66;;;3.59;82.83
62789;BME280;66401;42.016;21.454;2023-01-26T09:38:41;98255.66;;;3.60;82.36
62789;BME280;66401;42.016;21.454;2023-01-26T09:43:53;98246.56;;;3.48;83.00
62789;BME280;66401;42.016;21.454;2023-01-26T09:46:49;98238.81;;;3.48;82.89
62789;BME280;66401;42.016;21.454;2023-01-26T09:52:36;98223.56;;;3.37;83.38
62789;BME280;66401;42.016;21.454;2023-01-26T09:55:12;98209.47;;;3.41;84.49
62789;BME280;66401;42.016;21.454;2023-01-26T10:00:33;98203.84;;;3.45;84.99
62789;BME280;66401;42.016;21.454;2023-01-26T10:08:22;98180.84;;;3.44;83.88
62789;BME280;66401;42.016;21.454;2023-01-26T10:10:55;98174.38;;;3.40;84.20
62789;BME280;66401;42.016;21.454;2023-01-26T10:13:22;98193.28;;;3.49;83.68
62789;BME280;66401;42.016;21.454;2023-01-26T10:16:04;98191.13;;;3.44;83.90
62789;BME280;66401;42.016;21.454;2023-01-26T10:21:14;98182.47;;;3.45;82.95
62789;BME280;66401;42.016;21.454;2023-01-26T10:23:46;98179.53;;;3.40;83.03
62789;BME280;66401;42.016;21.454;2023-01-26T10:26:15;98174.66;;;3.37;84.30
62789;BME280;66401;42.016;21.454;2023-01-26T10:28:45;98177.91;;;3.39;83.63
62789;BME280;66401;42.016;21.454;2023-01-26T10:31:21;98167.63;;;3.39;84.37
62789;BME280;66401;42.016;21.454;2023-01-26T10:36:15;98147.03;;;3.39;84.01
62789;BME280;66401;42.016;21.454;2023-01-26T10:38:42;98143.19;;;3.43;84.96
62789;BME280;66401;42.016;21.454;2023-01-26T10:46:42;98121.69;;;3.78;83.87
62789;BME280;66401;42.016;21.454;2023-01-26T10:51:35;98119.28;;;3.77;83.72
62789;BME280;66401;42.016;21.454;2023-01-26T10:56:54;98114.03;;;3.60;84.67
62789;BME280;66401;42.016;21.454;2023-01-26T10:59:28;98117.09;;;3.64;84.42
62789;BME280;66401;42.016;21.454;2023-01-26T11:04:26;98092.75;;;3.58;85.32
62789;BME280;66401;42.016;21.454;2023-01-26T11:06:51;98074.53;;;3.52;84.08
62789;BME280;66401;42.016;21.454;2023-01-26T11:09:25;98077.31;;;3.58;84.76
62789;BME280;66401;42.016;21.454;2023-01-26T11:12:02;98078.63;;;3.62;86.11
62789;BME280;66401;42.016;21.454;2023-01-26T11:14:30;98076.94;;;3.53;85.71
62789;BME280;66401;42.016;21.454;2023-01-26T11:22:04;98047.88;;;3.61;86.27
62789;BME280;66401;42.016;21.454;2023-01-26T11:24:44;98048.66;;;3.61;85.05
62789;BME280;66401;42.016;21.454;2023-01-26T11:27:28;98028.66;;;3.55;84.71
62789;BME280;66401;42.016;21.454;2023-01-26T11:33:10;98038.75;;;3.74;84.18
62789;BME280;66401;42.016;21.454;2023-01-26T11:36:10;98041.09;;;3.60;85.38
62789;BME280;66401;42.016;21.454;2023-01-26T11:38:42;98040.56;;;3.48;85.79
62789;BME280;66401;42.016;21.454;2023-01-26T11:49:27;98013.25;;;3.29;85.54
62789;BME280;66401;42.016;21.454;2023-01-26T12:00:40;97999.16;;;3.76;83.52
62789;BME280;66401;42.016;21.454;2023-01-26T12:05:51;97978.56;;;3.84;82.78
62789;BME280;66401;42.016;21.454;2023-01-26T12:11:01;97992.44;;;3.91;82.51
62789;BME280;66401;42.016;21.454;2023-01-26T12:22:39;97994.50;;;3.79;83.75
62789;BME280;66401;42.016;21.454;2023-01-26T12:33:25;97957.03;;;3.93;83.50
62789;BME280;66401;42.016;21.454;2023-01-26T12:47:04;97912.31;;;4.51;82.14
62789;BME280;66401;42.016;21.454;2023-01-26T12:49:39;97922.94;;;4.48;79.74
62789;BME280;66401;42.016;21.454;2023-01-26T12:52:17;97936.16;;;4.61;79.71
62789;BME280;66401;42.016;21.454;2023-01-26T12:54:53;97957.13;;;4.58;80.32
62789;BME280;66401;42.016;21.454;2023-01-26T12:57:28;97939.72;;;4.52;79.55
62789;BME280;66401;42.016;21.454;2023-01-26T13:00:06;97937.44;;;4.41;80.55
62789;BME280;66401;42.016;21.454;2023-01-26T13:02:44;97925.34;;;4.17;80.93
62789;BME280;66401;42.016;21.454;2023-01-26T13:05:31;97940.66;;;4.51;80.92
62789;BME280;66401;42.016;21.454;2023-01-26T13:10:47;97935.19;;;4.62;80.98
62789;BME280;66401;42.016;21.454;2023-01-26T13:15:41;97927.63;;;4.36;80.36
62789;BME280;66401;42.016;21.454;2023-01-26T13:18:12;97931.66;;;4.55;80.14
62789;BME280;66401;42.016;21.454;2023-01-26T13:20:46;97924.91;;;4.46;80.09
62789;BME280;66401;42.016;21.454;2023-01-26T13:23:42;97930.06;;;4.54;79.88
62789;BME280;66401;42.016;21.454;2023-01-26T13:26:19;97933.09;;;4.57;79.00
62789;BME280;66401;42.016;21.454;2023-01-26T13:28:46;97922.00;;;4.57;79.17
62789;BME280;66401;42.016;21.454;2023-01-26T13:31:15;97922.94;;;4.31;80.25
62789;BME280;66401;42.016;21.454;2023-01-26T13:33:52;97922.63;;;4.35;80.69
62789;BME280;66401;42.016;21.454;2023-01-26T13:36:19;97924.22;;;4.52;80.60
62789;BME280;66401;42.016;21.454;2023-01-26T13:38:57;97920.03;;;4.59;80.47
62789;BME280;66401;42.016;21.454;2023-01-26T13:41:23;97913.09;;;4.68;80.46
62789;BME280;66401;42.016;21.454;2023-01-26T13:46:29;97903.59;;;4.68;79.93
62789;BME280;66401;42.016;21.454;2023-01-26T13:48:56;97907.28;;;4.82;79.10
62789;BME280;66401;42.016;21.454;2023-01-26T13:51:28;97901.97;;;4.75;79.55
62789;BME280;66401;42.016;21.454;2023-01-26T13:56:25;97889.72;;;4.69;79.79
62789;BME280;66401;42.016;21.454;2023-01-26T13:58:51;97885.19;;;4.79;79.11
62789;BME280;66401;42.016;21.454;2023-01-26T14:01:18;97886.81;;;4.80;77.85
62789;BME280;66401;42.016;21.454;2023-01-26T14:03:44;97883.59;;;4.78;77.98
62789;BME280;66401;42.016;21.454;2023-01-26T14:06:20;97888.41;;;4.81;78.16
62789;BME280;66401;42.016;21.454;2023-01-26T14:08:51;97883.91;;;4.75;77.04
62789;BME280;66401;42.016;21.454;2023-01-26T14:11:27;97875.38;;;4.83;77.87
62789;BME280;66401;42.016;21.454;2023-01-26T14:13:56;97865.84;;;4.83;76.48
62789;BME280;66401;42.016;21.454;2023-01-26T14:16:30;97865.34;;;4.80;77.47
62789;BME280;66401;42.016;21.454;2023-01-26T14:19:13;97860.06;;;4.73;77.81
62789;BME280;66401;42.016;21.454;2023-01-26T14:21:47;97868.28;;;4.69;77.20
62789;BME280;66401;42.016;21.454;2023-01-26T14:24:12;97871.50;;;4.71;77.68
62789;BME280;66401;42.016;21.454;2023-01-26T14:26:39;97869.41;;;4.66;78.29
62789;BME280;66401;42.016;21.454;2023-01-26T14:29:10;97873.16;;;4.55;79.17
62789;BME280;66401;42.016;21.454;2023-01-26T14:31:36;97861.41;;;4.45;78.75
62789;BME280;66401;42.016;21.454;2023-01-26T14:34:08;97872.00;;;4.50;78.84
62789;BME280;66401;42.016;21.454;2023-01-26T14:36:34;97871.38;;;4.48;79.29
62789;BME280;66401;42.016;21.454;2023-01-26T14:39:13;97868.00;;;4.39;80.03
62789;BME280;66401;42.016;21.454;2023-01-26T14:41:40;97873.31;;;4.46;79.55
62789;BME280;66401;42.016;21.454;2023-01-26T14:44:07;97860.91;;;4.49;79.43
62789;BME280;66401;42.016;21.454;2023-01-26T14:46:41;97853.00;;;4.51;79.49
62789;BME280;66401;42.016;21.454;2023-01-26T14:49:13;97858.78;;;4.53;79.34
62789;BME280;66401;42.016;21.454;2023-01-26T14:51:43;97858.16;;;4.43;79.27
62789;BME280;66401;42.016;21.454;2023-01-26T14:54:24;97842.53;;;4.36;78.59
62789;BME280;66401;42.016;21.454;2023-01-26T14:56:52;97842.03;;;4.32;79.11
62789;BME280;66401;42.016;21.454;2023-01-26T14:59:21;97841.06;;;4.42;79.73
62789;BME280;66401;42.016;21.454;2023-01-26T15:01:48;97848.16;;;4.40;81.13